createdAt,value
2023-01-13T00:01:59.896Z,90.95
2023-01-13T00:04:26.833Z,90.78
2023-01-13T00:06:53.694Z,87.03
2023-01-13T00:09:20.651Z,88.75
2023-01-13T00:11:47.779Z,82.30
2023-01-13T00:14:14.633Z,80.10
2023-01-13T00:16:41.667Z,79.25
2023-01-13T00:19:08.435Z,73.57
2023-01-13T00:21:36.669Z,75.72
2023-01-13T00:24:03.522Z,76.90
2023-01-13T00:26:36.343Z,68.32
2023-01-13T00:29:03.765Z,77.95
2023-01-13T00:31:31.064Z,75.72
2023-01-13T00:34:00.072Z,74.10
2023-01-13T00:36:27.658Z,67.57
2023-01-13T00:38:55.017Z,72.30
2023-01-13T00:41:24.108Z,67.18
2023-01-13T00:43:51.106Z,69.07
2023-01-13T00:46:20.972Z,68.10
2023-01-13T00:48:48.253Z,65.65
2023-01-13T00:51:17.874Z,64.80
2023-01-13T00:53:50.154Z,63.38
2023-01-13T00:56:38.584Z,63.47
2023-01-13T00:59:07.381Z,68.10
2023-01-13T01:01:34.324Z,67.55
2023-01-13T01:04:01.175Z,68.43
2023-01-13T01:06:28.477Z,74.40
2023-01-13T01:08:56.665Z,69.15
2023-01-13T01:11:26.418Z,72.82
2023-01-13T01:13:55.657Z,67.90
2023-01-13T01:16:23.938Z,70.40
2023-01-13T01:18:52.262Z,72.28
2023-01-13T01:21:19.992Z,72.97
2023-01-13T01:23:46.999Z,74.22
2023-01-13T01:26:16.691Z,76.45
2023-01-13T01:28:44.634Z,73.97
2023-01-13T01:31:15.790Z,87.97
2023-01-13T01:33:42.890Z,98.45
2023-01-13T01:36:12.080Z,93.55
2023-01-13T01:38:39.374Z,92.32
2023-01-13T01:41:07.157Z,111.10
2023-01-13T01:44:04.350Z,114.72
2023-01-13T01:46:39.678Z,106.13
2023-01-13T01:49:13.839Z,105.88
2023-01-13T01:52:09.006Z,101.20
2023-01-13T01:54:44.326Z,104.00
2023-01-13T01:57:17.428Z,100.70
2023-01-13T01:59:44.989Z,93.20
2023-01-13T02:02:12.384Z,93.50
2023-01-13T02:04:41.288Z,94.57
2023-01-13T02:07:08.606Z,88.05
2023-01-13T02:09:38.223Z,95.55
2023-01-13T02:12:23.953Z,111.03
2023-01-13T02:14:50.928Z,121.97
2023-01-13T02:17:48.718Z,125.18
2023-01-13T02:20:27.568Z,117.95
2023-01-13T02:22:57.365Z,126.13
2023-01-13T02:25:52.459Z,125.15
2023-01-13T02:29:23.913Z,100.57
2023-01-13T02:31:59.949Z,87.60
2023-01-13T02:34:51.925Z,88.68
2023-01-13T02:37:28.973Z,82.35
2023-01-13T02:40:03.073Z,78.82
2023-01-13T02:43:04.189Z,81.35
2023-01-13T02:45:46.678Z,78.53
2023-01-13T02:48:15.714Z,81.95
2023-01-13T02:50:50.275Z,83.43
2023-01-13T02:53:28.905Z,87.45
2023-01-13T02:56:01.038Z,79.43
2023-01-13T02:58:30.521Z,79.90
2023-01-13T03:00:57.940Z,80.82
2023-01-13T03:03:25.459Z,78.20
2023-01-13T03:06:00.953Z,80.05
2023-01-13T03:08:59.978Z,68.22
2023-01-13T03:11:32.785Z,71.43
2023-01-13T03:14:15.105Z,80.38
2023-01-13T03:16:57.066Z,75.82
2023-01-13T03:19:39.116Z,73.72
2023-01-13T03:22:27.321Z,79.25
2023-01-13T03:25:16.075Z,72.82
2023-01-13T03:28:04.789Z,80.30
2023-01-13T03:30:35.296Z,72.97
2023-01-13T03:33:34.580Z,76.10
2023-01-13T03:36:06.176Z,85.63
2023-01-13T03:38:37.409Z,90.40
2023-01-13T03:41:17.448Z,87.40
2023-01-13T03:44:25.696Z,82.50
2023-01-13T03:47:01.579Z,78.25
2023-01-13T03:49:51.826Z,73.78
2023-01-13T03:52:47.729Z,68.47
2023-01-13T03:55:21.457Z,67.72
2023-01-13T03:58:14.547Z,67.97
2023-01-13T04:00:50.618Z,64.75
2023-01-13T04:03:32.015Z,63.03
2023-01-13T04:06:09.242Z,64.85
2023-01-13T04:08:39.826Z,64.85
2023-01-13T04:11:16.009Z,70.53
2023-01-13T04:13:45.900Z,67.13
2023-01-13T04:16:13.753Z,71.85
2023-01-13T04:18:40.741Z,69.65
2023-01-13T04:21:08.236Z,64.75
2023-01-13T04:23:35.158Z,62.92
2023-01-13T04:26:02.142Z,68.72
2023-01-13T04:28:29.252Z,61.03
2023-01-13T04:30:56.313Z,62.80
2023-01-13T04:33:23.336Z,63.70
2023-01-13T04:35:50.219Z,62.70
2023-01-13T04:38:19.698Z,63.50
2023-01-13T04:40:47.006Z,69.22
2023-01-13T04:43:15.927Z,74.07
2023-01-13T04:45:43.802Z,65.72
2023-01-13T04:48:11.105Z,73.70
2023-01-13T04:50:37.912Z,83.00
2023-01-13T04:53:04.792Z,81.05
2023-01-13T04:55:32.381Z,78.55
2023-01-13T04:58:04.492Z,75.10
2023-01-13T05:00:32.155Z,72.13
2023-01-13T05:02:59.662Z,66.95
2023-01-13T05:05:28.144Z,67.57
2023-01-13T05:07:55.226Z,76.80
2023-01-13T05:10:23.993Z,72.78
2023-01-13T05:13:09.551Z,64.10
2023-01-13T05:15:56.849Z,64.10
2023-01-13T05:18:23.729Z,62.75
2023-01-13T05:20:50.654Z,62.40
2023-01-13T05:23:40.443Z,62.65
2023-01-13T05:26:07.412Z,63.15
2023-01-13T05:28:37.095Z,64.40
2023-01-13T05:31:04.064Z,66.30
2023-01-13T05:33:31.313Z,67.45
2023-01-13T05:36:02.959Z,60.53
2023-01-13T05:38:29.852Z,72.47
2023-01-13T05:41:18.393Z,60.90
2023-01-13T05:43:45.315Z,65.97
2023-01-13T05:46:13.096Z,67.75
2023-01-13T05:48:42.661Z,67.38
2023-01-13T05:51:12.198Z,67.32
2023-01-13T05:53:41.054Z,76.70
2023-01-13T05:56:09.105Z,76.25
2023-01-13T05:58:36.475Z,76.80
2023-01-13T06:01:06.376Z,69.00
2023-01-13T06:03:33.540Z,67.15
2023-01-13T06:06:02.399Z,73.47
2023-01-13T06:08:29.442Z,75.97
2023-01-13T06:10:58.841Z,71.57
2023-01-13T06:13:26.000Z,80.22
2023-01-13T06:15:57.777Z,97.03
2023-01-13T06:18:25.171Z,98.85
2023-01-13T06:20:52.019Z,97.35
2023-01-13T06:23:19.158Z,89.80
2023-01-13T06:26:16.406Z,85.05
2023-01-13T06:28:43.195Z,84.00
2023-01-13T06:31:11.217Z,77.40
2023-01-13T06:33:41.501Z,70.50
2023-01-13T06:36:14.849Z,69.45
2023-01-13T06:38:46.397Z,65.63
2023-01-13T06:41:13.605Z,58.22
2023-01-13T06:43:40.782Z,57.38
2023-01-13T06:46:07.795Z,53.08
2023-01-13T06:48:35.757Z,50.65
2023-01-13T06:51:04.244Z,50.22
2023-01-13T06:53:31.358Z,48.22
2023-01-13T06:55:58.183Z,50.30
2023-01-13T06:58:24.992Z,52.47
2023-01-13T07:00:51.998Z,47.30
2023-01-13T07:03:20.198Z,46.75
2023-01-13T07:05:55.142Z,42.95
2023-01-13T07:08:23.703Z,41.75
2023-01-13T07:10:51.620Z,39.60
2023-01-13T07:13:37.623Z,45.78
2023-01-13T07:16:06.864Z,41.58
2023-01-13T07:18:35.330Z,44.33
2023-01-13T07:21:08.102Z,43.65
2023-01-13T07:23:37.757Z,47.38
2023-01-13T07:26:05.270Z,47.80
2023-01-13T07:28:33.056Z,49.25
2023-01-13T07:31:00.605Z,47.03
2023-01-13T07:33:27.873Z,53.13
2023-01-13T07:36:00.148Z,53.25
2023-01-13T07:38:27.341Z,53.85
2023-01-13T07:40:54.636Z,57.65
2023-01-13T07:43:34.042Z,56.92
2023-01-13T07:46:06.322Z,64.88
2023-01-13T07:48:34.913Z,64.18
2023-01-13T07:51:07.918Z,61.75
2023-01-13T07:53:35.649Z,62.85
2023-01-13T07:56:04.044Z,58.13
2023-01-13T07:58:31.292Z,57.58
2023-01-13T08:00:58.370Z,55.30
2023-01-13T08:03:26.576Z,63.00
2023-01-13T08:05:53.605Z,57.20
2023-01-13T08:08:20.485Z,63.40
2023-01-13T08:10:47.504Z,55.63
2023-01-13T08:13:20.244Z,58.63
2023-01-13T08:15:52.933Z,61.92
2023-01-13T08:18:22.461Z,62.25
2023-01-13T08:20:50.109Z,60.42
2023-01-13T08:23:17.620Z,60.03
2023-01-13T08:25:45.309Z,60.00
2023-01-13T08:28:13.393Z,61.75
2023-01-13T08:30:40.488Z,61.95
2023-01-13T08:33:27.725Z,63.03
2023-01-13T08:35:54.739Z,68.40
2023-01-13T08:38:21.625Z,68.75
2023-01-13T08:40:48.659Z,66.40
2023-01-13T08:43:16.139Z,64.80
2023-01-13T08:45:43.060Z,67.30
2023-01-13T08:48:10.060Z,67.38
2023-01-13T08:50:36.890Z,68.38
2023-01-13T08:53:04.072Z,63.47
2023-01-13T08:55:31.143Z,59.92
2023-01-13T08:58:14.170Z,70.55
2023-01-13T09:00:42.502Z,59.95
2023-01-13T09:03:09.749Z,60.53
2023-01-13T09:05:36.865Z,62.20
2023-01-13T09:08:03.714Z,54.20
2023-01-13T09:10:30.667Z,56.15
2023-01-13T09:13:13.019Z,54.10
2023-01-13T09:15:42.370Z,61.92
2023-01-13T09:18:09.468Z,56.65
2023-01-13T09:20:37.053Z,55.20
2023-01-13T09:23:05.691Z,51.30
2023-01-13T09:25:36.664Z,50.70
2023-01-13T09:28:05.154Z,55.00
2023-01-13T09:30:32.540Z,51.22
2023-01-13T09:33:18.570Z,48.85
2023-01-13T09:35:45.522Z,43.70
2023-01-13T09:38:12.379Z,42.95
2023-01-13T09:40:41.740Z,43.58
2023-01-13T09:43:56.281Z,43.75
2023-01-13T09:46:47.711Z,44.75
2023-01-13T09:49:24.287Z,44.17
2023-01-13T09:54:28.633Z,41.08
2023-01-13T09:56:55.413Z,44.47
2023-01-13T09:59:22.334Z,43.67
2023-01-13T10:01:59.515Z,45.22
2023-01-13T10:04:27.161Z,43.03
2023-01-13T10:07:01.477Z,42.05
2023-01-13T10:09:46.478Z,45.95
2023-01-13T10:12:41.545Z,47.13
2023-01-13T10:15:15.534Z,41.60
2023-01-13T10:17:50.881Z,39.13
2023-01-13T10:20:35.717Z,37.28
2023-01-13T10:23:39.919Z,36.40
2023-01-13T10:26:47.685Z,37.75
2023-01-13T10:29:26.580Z,33.60
2023-01-13T10:31:55.003Z,36.55
2023-01-13T10:34:23.913Z,32.95
2023-01-13T10:37:09.321Z,31.83
2023-01-13T10:39:44.887Z,41.10
2023-01-13T10:42:17.834Z,33.95
2023-01-13T10:45:03.849Z,39.90
2023-01-13T10:47:36.365Z,42.58
2023-01-13T10:50:09.811Z,39.38
2023-01-13T10:52:43.321Z,33.50
2023-01-13T10:55:33.791Z,32.55
2023-01-13T10:58:21.647Z,32.20
2023-01-13T11:00:49.802Z,31.20
2023-01-13T11:03:18.656Z,28.13
2023-01-13T11:06:00.492Z,32.92
2023-01-13T11:08:40.455Z,32.63
2023-01-13T11:11:24.782Z,36.10
2023-01-13T11:14:13.724Z,33.42
2023-01-13T11:16:52.912Z,34.53
2023-01-13T11:19:29.384Z,52.28
2023-01-13T11:22:06.027Z,43.42
2023-01-13T11:27:34.739Z,45.22
2023-01-13T11:30:09.903Z,31.75
2023-01-13T11:32:56.701Z,31.48
2023-01-13T11:35:24.887Z,28.85
2023-01-13T11:37:56.389Z,29.80
2023-01-13T11:40:36.692Z,36.90
2023-01-13T11:43:21.763Z,32.17
2023-01-13T11:45:56.265Z,30.58
2023-01-13T11:48:27.211Z,29.98
2023-01-13T11:51:09.382Z,29.05
2023-01-13T11:54:04.247Z,18.75
2023-01-13T11:57:10.393Z,16.55
2023-01-13T11:59:56.705Z,20.55
2023-01-13T12:02:49.045Z,18.87
2023-01-13T12:05:23.982Z,20.73
2023-01-13T12:08:03.065Z,22.30
2023-01-13T12:11:00.235Z,22.23
2023-01-13T12:13:46.398Z,18.52
2023-01-13T12:16:21.118Z,23.67
2023-01-13T12:19:07.832Z,24.95
2023-01-13T12:21:41.579Z,25.88
2023-01-13T12:24:20.837Z,27.73
2023-01-13T12:26:59.685Z,23.75
2023-01-13T12:29:33.150Z,24.40
2023-01-13T12:32:03.545Z,27.27
2023-01-13T12:34:51.000Z,27.30
2023-01-13T12:37:44.980Z,22.77
2023-01-13T12:40:18.025Z,21.95
2023-01-13T12:43:22.405Z,24.05
2023-01-13T12:45:49.364Z,22.58
2023-01-13T12:48:55.403Z,18.60
2023-01-13T12:51:33.455Z,21.63
2023-01-13T12:54:21.278Z,22.15
2023-01-13T12:56:48.403Z,21.88
2023-01-13T12:59:20.737Z,26.02
2023-01-13T13:02:10.971Z,25.58
2023-01-13T13:04:51.846Z,25.65
2023-01-13T13:07:30.852Z,25.98
2023-01-13T13:10:05.516Z,30.98
2023-01-13T13:13:00.276Z,33.58
2023-01-13T13:15:37.133Z,32.20
2023-01-13T13:18:24.493Z,31.67
2023-01-13T13:21:04.749Z,35.63
2023-01-13T13:23:38.045Z,37.20
2023-01-13T13:26:24.845Z,34.78
2023-01-13T13:29:06.611Z,32.85
2023-01-13T13:32:04.391Z,33.58
2023-01-13T13:34:52.746Z,36.70
2023-01-13T13:38:00.205Z,34.47
2023-01-13T13:40:50.417Z,28.13
2023-01-13T13:43:36.882Z,23.75
2023-01-13T13:46:49.446Z,28.10
2023-01-13T13:49:40.571Z,27.58
2023-01-13T13:52:15.102Z,35.85
2023-01-13T13:54:47.578Z,33.08
2023-01-13T13:57:18.187Z,31.10
2023-01-13T13:59:45.082Z,28.40
2023-01-13T14:02:23.965Z,32.42
2023-01-13T14:04:50.874Z,32.22
2023-01-13T14:07:21.259Z,29.30
2023-01-13T14:09:53.052Z,26.17
2023-01-13T14:12:27.620Z,23.60
2023-01-13T14:14:57.655Z,28.63
2023-01-13T14:17:28.560Z,28.40
2023-01-13T14:20:05.754Z,26.38
2023-01-13T14:22:33.011Z,37.08
2023-01-13T14:25:02.126Z,30.75
2023-01-13T14:27:30.803Z,31.25
2023-01-13T14:30:00.656Z,35.40
2023-01-13T14:32:35.165Z,35.00
2023-01-13T14:35:03.453Z,32.03
2023-01-13T14:37:41.987Z,35.85
2023-01-13T14:40:33.348Z,36.35
2023-01-13T14:43:01.608Z,41.45
2023-01-13T14:45:29.411Z,40.35
2023-01-13T14:47:58.493Z,47.20
2023-01-13T14:50:31.698Z,52.88
2023-01-13T14:53:00.900Z,52.30
2023-01-13T14:55:31.730Z,46.35
2023-01-13T14:58:22.239Z,48.88
2023-01-13T15:00:50.547Z,55.08
2023-01-13T15:03:20.003Z,54.25
2023-01-13T15:05:53.688Z,58.10
2023-01-13T15:08:30.089Z,55.85
2023-01-13T15:11:02.940Z,53.70
2023-01-13T15:13:29.959Z,56.75
2023-01-13T15:16:00.324Z,55.72
2023-01-13T15:18:28.023Z,54.40
2023-01-13T15:20:55.064Z,64.72
2023-01-13T15:23:22.123Z,58.15
2023-01-13T15:25:57.972Z,55.25
2023-01-13T15:28:27.275Z,47.72
2023-01-13T15:30:56.197Z,54.78
2023-01-13T15:33:23.155Z,62.15
2023-01-13T15:35:53.674Z,57.42
2023-01-13T15:38:23.399Z,71.88
2023-01-13T15:40:52.115Z,58.88
2023-01-13T15:43:56.842Z,58.03
2023-01-13T15:46:39.327Z,60.05
2023-01-13T15:49:35.057Z,58.95
2023-01-13T15:52:14.221Z,62.47
2023-01-13T15:54:41.142Z,68.95
2023-01-13T15:57:32.783Z,72.50
2023-01-13T16:00:05.993Z,79.55
2023-01-13T16:02:32.811Z,82.32
2023-01-13T16:04:59.690Z,80.65
2023-01-13T16:07:26.740Z,77.00
2023-01-13T16:09:53.929Z,69.07
2023-01-13T16:12:21.105Z,82.20
2023-01-13T16:14:48.047Z,78.45
2023-01-13T16:17:17.810Z,83.95
2023-01-13T16:19:45.370Z,89.80
2023-01-13T16:22:14.374Z,86.00
2023-01-13T16:24:42.061Z,84.57
2023-01-13T16:27:18.820Z,88.35
2023-01-13T16:29:46.536Z,97.00
2023-01-13T16:32:13.813Z,87.70
2023-01-13T16:34:41.411Z,95.22
2023-01-13T16:37:24.610Z,92.15
2023-01-13T16:39:53.103Z,90.63
2023-01-13T16:42:20.876Z,85.40
2023-01-13T16:44:48.727Z,79.85
2023-01-13T16:47:16.939Z,71.78
2023-01-13T16:49:44.586Z,68.80
2023-01-13T16:52:11.640Z,63.85
2023-01-13T16:54:38.479Z,73.18
2023-01-13T16:57:07.455Z,66.72
2023-01-13T16:59:34.299Z,71.88
2023-01-13T17:02:02.440Z,74.55
2023-01-13T17:04:29.402Z,64.03
2023-01-13T17:06:58.554Z,69.47
2023-01-13T17:09:27.559Z,63.75
2023-01-13T17:11:55.341Z,57.20
2023-01-13T17:14:23.675Z,68.20
2023-01-13T17:16:53.029Z,65.45
2023-01-13T17:19:22.142Z,70.85
2023-01-13T17:21:51.127Z,73.57
2023-01-13T17:24:18.133Z,71.07
2023-01-13T17:26:49.430Z,78.60
2023-01-13T17:29:17.627Z,96.28
2023-01-13T17:31:45.035Z,84.28
2023-01-13T17:34:12.995Z,95.22
2023-01-13T17:36:40.178Z,89.47
2023-01-13T17:39:07.170Z,83.45
2023-01-13T17:41:34.168Z,82.50
2023-01-13T17:44:00.993Z,84.38
2023-01-13T17:46:27.912Z,85.70
2023-01-13T17:48:55.321Z,89.25
2023-01-13T17:51:25.697Z,86.05
2023-01-13T17:53:54.014Z,107.63
2023-01-13T17:56:20.832Z,116.95
2023-01-13T17:58:47.645Z,129.68
2023-01-13T18:01:18.141Z,131.35
2023-01-13T18:03:50.791Z,151.88
2023-01-13T18:06:20.809Z,174.23
2023-01-13T18:08:48.031Z,223.40
2023-01-13T18:11:19.808Z,251.48
2023-01-13T18:13:48.316Z,269.85
2023-01-13T18:16:17.407Z,285.15
2023-01-13T18:19:22.434Z,277.25
2023-01-13T18:22:07.843Z,184.05
2023-01-13T18:24:54.122Z,189.88
2023-01-13T18:27:28.643Z,157.68
2023-01-13T18:29:57.724Z,202.57
2023-01-13T18:32:30.939Z,157.55
2023-01-13T18:35:05.564Z,151.13
2023-01-13T18:37:36.069Z,143.60
2023-01-13T18:40:04.644Z,134.43
2023-01-13T18:42:50.227Z,151.55
2023-01-13T18:45:18.530Z,135.15
2023-01-13T18:47:45.818Z,132.90
2023-01-13T18:50:13.841Z,119.47
2023-01-13T18:52:41.516Z,118.93
2023-01-13T18:55:11.092Z,114.28
2023-01-13T18:57:40.689Z,115.13
2023-01-13T19:00:13.532Z,120.05
2023-01-13T19:02:40.848Z,123.40
2023-01-13T19:05:08.185Z,125.90
2023-01-13T19:07:36.256Z,120.10
2023-01-13T19:10:12.174Z,105.97
2023-01-13T19:12:39.136Z,110.95
2023-01-13T19:15:06.455Z,103.22
2023-01-13T19:17:35.155Z,112.03
2023-01-13T19:20:02.768Z,101.82
2023-01-13T19:22:32.950Z,103.10
2023-01-13T19:25:01.745Z,112.45
2023-01-13T19:27:29.394Z,113.32
2023-01-13T19:29:58.827Z,124.22
2023-01-13T19:32:26.170Z,104.43
2023-01-13T19:34:55.217Z,101.40
2023-01-13T19:37:22.187Z,99.45
2023-01-13T19:39:49.065Z,107.75
2023-01-13T19:42:34.844Z,107.22
2023-01-13T19:45:20.303Z,105.57
2023-01-13T19:47:47.244Z,104.15
2023-01-13T19:50:26.321Z,95.60
2023-01-13T19:53:04.081Z,97.25
2023-01-13T19:55:32.112Z,85.90
2023-01-13T19:57:59.298Z,82.10
2023-01-13T20:00:26.256Z,88.00
2023-01-13T20:02:53.440Z,80.25
2023-01-13T20:05:24.442Z,83.00
2023-01-13T20:07:52.320Z,78.63
2023-01-13T20:10:21.147Z,78.85
2023-01-13T20:12:48.196Z,77.40
2023-01-13T20:15:15.521Z,77.40
2023-01-13T20:17:42.371Z,73.82
2023-01-13T20:20:10.850Z,77.82
2023-01-13T20:22:41.061Z,75.80
2023-01-13T20:25:09.227Z,72.18
2023-01-13T20:27:37.445Z,71.47
2023-01-13T20:30:05.987Z,72.63
2023-01-13T20:32:32.904Z,67.45
2023-01-13T20:34:59.727Z,74.28
2023-01-13T20:37:26.820Z,65.13
2023-01-13T20:39:54.756Z,65.95
2023-01-13T20:42:31.714Z,64.18
2023-01-13T20:45:01.444Z,63.50
2023-01-13T20:47:29.642Z,60.95
2023-01-13T20:49:56.563Z,64.38
2023-01-13T20:52:23.717Z,62.17
2023-01-13T20:54:50.620Z,87.50
2023-01-13T20:57:17.713Z,97.35
2023-01-13T20:59:44.890Z,89.72
2023-01-13T21:02:14.475Z,90.53
2023-01-13T21:04:41.832Z,83.75
2023-01-13T21:07:09.126Z,89.10
2023-01-13T21:09:38.897Z,83.10
2023-01-13T21:12:25.097Z,87.80
2023-01-13T21:15:11.148Z,78.83
2023-01-13T21:17:56.735Z,69.53
2023-01-13T21:20:23.821Z,73.50
2023-01-13T21:22:50.657Z,75.35
2023-01-13T21:25:18.687Z,72.35
2023-01-13T21:28:10.416Z,72.43
2023-01-13T21:30:39.075Z,70.03
2023-01-13T21:33:06.520Z,74.75
2023-01-13T21:35:33.630Z,66.65
2023-01-13T21:38:00.721Z,72.68
2023-01-13T21:40:27.632Z,66.70
2023-01-13T21:43:13.263Z,70.28
2023-01-13T21:46:15.270Z,68.03
2023-01-13T21:48:42.123Z,91.60
2023-01-13T21:51:08.994Z,87.88
2023-01-13T21:53:35.795Z,87.70
2023-01-13T21:56:02.626Z,93.43
2023-01-13T21:58:29.488Z,99.78
2023-01-13T22:00:56.552Z,93.57
2023-01-13T22:03:23.693Z,99.55
2023-01-13T22:05:55.734Z,104.28
2023-01-13T22:08:22.650Z,100.75
2023-01-13T22:10:58.171Z,109.47
2023-01-13T22:13:45.618Z,116.77
2023-01-13T22:16:13.431Z,117.43
2023-01-13T22:18:40.323Z,115.25
2023-01-13T22:21:07.885Z,106.88
2023-01-13T22:23:34.847Z,131.07
2023-01-13T22:26:06.590Z,121.55
2023-01-13T22:28:51.735Z,114.93
2023-01-13T22:31:23.986Z,111.50
2023-01-13T22:33:56.737Z,127.80
2023-01-13T22:36:24.394Z,109.80
2023-01-13T22:38:56.454Z,124.30
2023-01-13T22:41:23.937Z,134.73
2023-01-13T22:43:50.827Z,129.32
2023-01-13T22:46:17.903Z,138.68
2023-01-13T22:48:46.205Z,131.05
2023-01-13T22:51:18.715Z,120.10
2023-01-13T22:54:03.885Z,123.75
2023-01-13T22:56:30.762Z,120.40
2023-01-13T22:58:59.919Z,122.30
2023-01-13T23:01:28.852Z,121.07
2023-01-13T23:03:56.526Z,111.63
2023-01-13T23:06:25.733Z,120.68
2023-01-13T23:08:53.240Z,113.97
2023-01-13T23:11:23.571Z,111.03
2023-01-13T23:13:53.176Z,110.35
2023-01-13T23:16:24.096Z,120.72
2023-01-13T23:18:50.994Z,110.05
2023-01-13T23:21:29.878Z,113.10
2023-01-13T23:23:58.740Z,117.15
2023-01-13T23:26:27.373Z,123.10
2023-01-13T23:28:58.888Z,129.75
2023-01-13T23:31:25.656Z,136.55
2023-01-13T23:33:52.508Z,130.05
2023-01-13T23:36:22.409Z,141.40
2023-01-13T23:38:49.651Z,133.98
2023-01-13T23:41:19.555Z,136.50
2023-01-13T23:44:00.652Z,127.32
2023-01-13T23:46:32.759Z,122.72
2023-01-13T23:49:01.025Z,118.20
2023-01-13T23:51:30.185Z,107.88
2023-01-13T23:53:58.605Z,108.93
2023-01-13T23:56:28.555Z,103.43
2023-01-13T23:58:55.982Z,91.35
